Time;durP1;ratioP1;P1;durP2;ratioP2;P2;SDS_P1;SDS_P2;PMS_P1;PMS_P2;Temp;Humidity;BMP_temperature;BMP_pressure;BME280_temperature;BME280_humidity;BME280_pressure;Samples;Min_cycle;Max_cycle;Signal;HPM_P1;HPM_P2
2020/12/04 00:02:22;;;;;;;56.17;33.92;;;;;;;13.85;29.56;94343.13;5117398;28;20048;-57
2020/12/04 00:04:49;;;;;;;38.40;25.95;;;;;;;14.03;29.56;94357.06;5117516;28;20381;-62
2020/12/04 00:07:16;;;;;;;43.55;28.83;;;;;;;13.98;29.34;94350.09;5103336;28;20346;-59
2020/12/04 00:09:44;;;;;;;42.17;27.23;;;;;;;14.12;28.95;94345.50;5097144;28;20063;-56
2020/12/04 00:12:11;;;;;;;39.50;25.33;;;;;;;13.67;29.62;94346.81;5110288;28;20386;-58
2020/12/04 00:14:39;;;;;;;33.88;24.05;;;;;;;13.94;29.70;94353.66;5117295;28;20040;-57
2020/12/04 00:17:06;;;;;;;35.42;24.17;;;;;;;13.98;29.88;94344.06;5117103;28;20059;-57
2020/12/04 00:19:33;;;;;;;33.85;23.85;;;;;;;14.12;29.32;94337.59;5117309;28;20054;-57
2020/12/04 00:22:00;;;;;;;33.13;24.00;;;;;;;13.76;29.24;94337.06;5117685;28;20050;-58
2020/12/04 00:24:31;;;;;;;30.70;22.35;;;;;;;13.75;29.14;94346.03;5116990;28;20043;-56
2020/12/04 00:27:10;;;;;;;33.97;24.10;;;;;;;13.84;29.66;94349.47;5117149;28;20377;-58
2020/12/04 00:29:37;;;;;;;31.30;23.45;;;;;;;14.07;29.11;94348.28;5117009;28;20050;-56
2020/12/04 00:32:04;;;;;;;31.83;22.90;;;;;;;13.63;29.64;94332.72;5117058;28;20060;-58
2020/12/04 00:34:31;;;;;;;34.55;25.42;;;;;;;13.65;29.58;94341.06;5116645;28;20059;-59
2020/12/04 00:36:58;;;;;;;33.83;23.98;;;;;;;13.67;29.31;94339.69;5116951;28;20043;-57
2020/12/04 00:39:26;;;;;;;36.03;25.88;;;;;;;13.65;29.61;94346.34;5116988;28;20040;-57
2020/12/04 00:41:53;;;;;;;30.40;22.58;;;;;;;13.69;29.91;94345.41;5116286;28;20047;-60
2020/12/04 00:44:20;;;;;;;32.53;23.45;;;;;;;13.95;29.08;94334.19;5098603;28;20048;-59
2020/12/04 00:46:47;;;;;;;26.15;19.33;;;;;;;14.00;29.60;94342.69;5116257;28;20058;-57
2020/12/04 00:49:14;;;;;;;28.48;22.83;;;;;;;13.91;29.31;94341.91;5116756;28;20050;-57
2020/12/04 00:51:42;;;;;;;27.10;19.75;;;;;;;14.07;29.30;94337.75;5098606;28;20055;-58
2020/12/04 00:54:09;;;;;;;30.08;21.45;;;;;;;14.01;29.14;94338.97;5098279;28;20047;-59
2020/12/04 00:56:37;;;;;;;22.27;17.05;;;;;;;13.95;29.76;94332.31;5098451;28;20047;-59
2020/12/04 00:59:20;;;;;;;29.65;22.52;;;;;;;14.12;28.35;94321.84;5098640;28;20375;-57
2020/12/04 01:01:48;;;;;;;22.50;17.73;;;;;;;14.34;28.60;94330.66;5116515;28;20059;-60
2020/12/04 01:04:15;;;;;;;19.77;15.02;;;;;;;14.24;29.08;94307.28;5116228;28;20362;-58
2020/12/04 01:06:42;;;;;;;21.42;16.63;;;;;;;14.08;29.51;94315.66;5115914;28;20521;-57
2020/12/04 01:09:09;;;;;;;24.95;18.02;;;;;;;14.15;28.87;94315.97;5116389;28;20055;-55
2020/12/04 01:11:36;;;;;;;22.52;16.33;;;;;;;13.92;29.52;94306.66;5115306;28;20042;-57
2020/12/04 01:14:03;;;;;;;23.85;16.55;;;;;;;13.88;29.89;94305.72;5115973;28;20389;-58
2020/12/04 01:16:30;;;;;;;24.63;16.40;;;;;;;13.89;29.63;94292.28;5115763;28;20442;-56
2020/12/04 01:18:57;;;;;;;25.00;17.40;;;;;;;14.03;29.69;94294.75;5115969;28;20055;-58
2020/12/04 01:21:25;;;;;;;22.20;16.85;;;;;;;14.38;28.77;94294.75;5116466;28;20051;-57
2020/12/04 01:23:53;;;;;;;22.48;17.23;;;;;;;14.17;29.22;94294.63;5115807;28;20071;-57
2020/12/04 01:26:20;;;;;;;21.58;16.05;;;;;;;13.70;29.27;94291.03;5115945;28;20062;-57
2020/12/04 01:28:47;;;;;;;25.02;17.42;;;;;;;13.81;29.39;94281.78;5115848;28;20063;-62
2020/12/04 01:31:14;;;;;;;21.73;16.70;;;;;;;13.70;29.75;94286.53;5115986;28;20043;-60
2020/12/04 01:33:41;;;;;;;23.42;16.90;;;;;;;14.13;29.39;94272.66;5115452;28;20039;-58
2020/12/04 01:36:08;;;;;;;22.83;17.02;;;;;;;14.17;29.34;94271.72;5115884;28;20054;-60
2020/12/04 01:38:36;;;;;;;22.95;16.70;;;;;;;14.09;29.47;94277.78;5115779;28;20051;-57
2020/12/04 01:41:03;;;;;;;23.00;16.85;;;;;;;14.03;29.88;94286.88;5115607;28;20055;-60
2020/12/04 01:43:30;;;;;;;22.67;16.50;;;;;;;14.03;29.87;94276.34;5115608;28;20039;-59
2020/12/04 01:45:58;;;;;;;24.73;17.48;;;;;;;14.23;29.46;94271.56;5115577;28;20055;-60
2020/12/04 01:48:26;;;;;;;21.80;15.65;;;;;;;14.21;28.97;94264.00;5097923;28;20055;-58
2020/12/04 01:50:53;;;;;;;22.35;16.15;;;;;;;14.14;29.26;94256.56;5115648;28;20058;-61
2020/12/04 01:53:20;;;;;;;21.60;16.05;;;;;;;14.26;29.17;94244.66;5115442;28;20043;-61
2020/12/04 01:55:50;;;;;;;19.88;15.38;;;;;;;14.26;29.78;94249.91;5097736;28;20059;-59
2020/12/04 01:58:17;;;;;;;19.83;14.40;;;;;;;14.45;29.28;94242.50;5098266;28;20050;-60
2020/12/04 02:00:45;;;;;;;18.48;14.77;;;;;;;14.17;29.57;94237.56;5115890;28;20056;-60
2020/12/04 02:03:14;;;;;;;21.88;15.07;;;;;;;14.08;29.87;94228.91;5115519;28;20040;-59
2020/12/04 02:05:48;;;;;;;20.38;14.80;;;;;;;14.32;29.16;94238.16;5097896;28;20048;-60
2020/12/04 02:08:26;;;;;;;18.13;13.60;;;;;;;14.43;29.19;94228.88;5097705;28;20060;-57
2020/12/04 02:11:18;;;;;;;21.08;14.95;;;;;;;14.30;29.01;94224.53;5097238;28;20055;-55
2020/12/04 02:13:46;;;;;;;18.83;13.68;;;;;;;14.29;29.41;94223.00;5107667;28;20052;-57
2020/12/04 02:16:23;;;;;;;18.05;13.32;;;;;;;14.51;29.16;94230.72;5097459;28;20058;-60
2020/12/04 02:18:51;;;;;;;19.70;13.20;;;;;;;14.50;29.12;94223.91;5115490;28;20062;-58
2020/12/04 02:21:18;;;;;;;15.75;12.68;;;;;;;14.32;29.69;94225.00;5115667;28;20058;-57
2020/12/04 02:23:47;;;;;;;18.08;12.48;;;;;;;14.39;29.63;94239.22;5117469;28;20044;-59
2020/12/04 02:26:19;;;;;;;16.30;12.57;;;;;;;14.73;28.97;94227.84;5112907;28;20358;-58
2020/12/04 02:28:46;;;;;;;17.15;12.65;;;;;;;14.37;29.49;94238.75;5099031;28;20056;-58
2020/12/04 02:31:14;;;;;;;16.65;12.70;;;;;;;14.44;29.24;94240.94;5081038;28;20082;-58
2020/12/04 02:33:43;;;;;;;17.75;13.35;;;;;;;14.47;29.20;94229.78;5107737;28;20044;-56
2020/12/04 02:36:11;;;;;;;18.15;13.35;;;;;;;14.40;29.34;94229.47;5119081;28;20048;-59
2020/12/04 02:38:38;;;;;;;16.23;12.45;;;;;;;14.19;29.80;94235.38;5119183;28;20055;-58
2020/12/04 02:41:07;;;;;;;16.25;12.38;;;;;;;14.29;29.71;94223.00;5118943;28;20055;-58
2020/12/04 02:43:35;;;;;;;17.05;11.90;;;;;;;14.45;29.32;94226.72;5119087;28;20055;-57
2020/12/04 02:46:02;;;;;;;16.63;12.60;;;;;;;14.48;29.44;94220.81;5119035;28;20056;-58
2020/12/04 02:48:29;;;;;;;15.32;11.95;;;;;;;14.72;29.21;94213.16;5119092;28;20051;-59
2020/12/04 02:50:56;;;;;;;15.50;11.35;;;;;;;14.67;29.73;94215.97;5119185;28;20350;-57
2020/12/04 02:53:23;;;;;;;16.08;11.30;;;;;;;14.69;29.33;94213.78;5118817;28;20455;-59
2020/12/04 02:55:51;;;;;;;16.15;11.90;;;;;;;14.55;29.40;94226.34;5118815;28;20044;-58
2020/12/04 02:58:18;;;;;;;16.30;12.20;;;;;;;14.46;29.37;94204.56;5119051;28;20110;-59
2020/12/04 03:00:45;;;;;;;16.95;12.23;;;;;;;14.50;29.73;94216.00;5118796;28;20047;-57
2020/12/04 03:03:12;;;;;;;17.63;12.88;;;;;;;14.17;30.23;94203.38;5118593;28;20047;-58
2020/12/04 03:05:39;;;;;;;16.83;12.38;;;;;;;14.19;30.34;94222.25;5118653;28;20370;-60
2020/12/04 03:08:07;;;;;;;17.60;13.35;;;;;;;14.34;30.02;94204.44;5119113;28;20353;-59
2020/12/04 03:10:34;;;;;;;18.20;13.20;;;;;;;14.46;29.62;94202.72;5118339;28;20365;-58
2020/12/04 03:13:01;;;;;;;18.63;13.75;;;;;;;14.57;29.78;94216.28;5118282;28;20055;-62
2020/12/04 03:15:28;;;;;;;17.08;12.70;;;;;;;14.65;29.69;94212.13;5118373;28;20054;-61
2020/12/04 03:17:55;;;;;;;17.70;13.57;;;;;;;14.65;29.52;94223.41;5118518;28;20051;-61
2020/12/04 03:20:22;;;;;;;17.83;13.35;;;;;;;14.43;29.94;94218.34;5118639;28;20339;-59
2020/12/04 03:22:49;;;;;;;17.70;13.35;;;;;;;14.60;29.44;94207.81;5118165;28;20050;-57
2020/12/04 03:25:16;;;;;;;17.55;13.25;;;;;;;14.71;29.44;94221.38;5118294;28;20054;-58
2020/12/04 03:27:44;;;;;;;17.98;12.93;;;;;;;14.66;29.69;94227.59;5118455;28;20059;-56
2020/12/04 03:30:11;;;;;;;17.67;12.88;;;;;;;14.59;29.52;94234.44;5118271;28;20054;-57
2020/12/04 03:32:38;;;;;;;16.90;12.48;;;;;;;14.55;29.60;94213.22;5118127;28;20047;-57
2020/12/04 03:35:05;;;;;;;17.35;12.85;;;;;;;14.61;29.73;94219.88;5117284;28;20098;-60
2020/12/04 03:37:32;;;;;;;16.05;12.63;;;;;;;14.36;30.17;94224.06;5118229;28;20402;-57
2020/12/04 03:39:59;;;;;;;18.35;12.85;;;;;;;14.59;29.59;94221.28;5118148;28;20059;-58
2020/12/04 03:42:26;;;;;;;16.83;12.90;;;;;;;14.62;29.32;94229.31;5116622;28;20048;-56
2020/12/04 03:44:53;;;;;;;16.60;13.27;;;;;;;14.68;29.30;94220.16;5117808;28;20054;-57
2020/12/04 03:47:20;;;;;;;18.33;13.80;;;;;;;14.88;29.32;94218.69;5118024;28;20066;-62
2020/12/04 03:49:47;;;;;;;18.08;13.60;;;;;;;14.92;29.31;94237.25;5117927;28;20446;-57
2020/12/04 03:52:20;;;;;;;18.05;13.95;;;;;;;14.69;29.42;94218.28;5117822;28;20058;-57
2020/12/04 03:54:48;;;;;;;18.00;13.23;;;;;;;15.05;29.50;94229.13;5117601;28;20055;-57
2020/12/04 03:57:15;;;;;;;17.05;12.30;;;;;;;15.03;29.37;94248.97;5117826;28;20047;-57
2020/12/04 03:59:42;;;;;;;18.30;13.07;;;;;;;15.14;29.07;94223.84;5117798;28;20051;-59
2020/12/04 04:02:10;;;;;;;20.25;13.85;;;;;;;15.52;28.57;94239.56;5116145;28;20047;-60
2020/12/04 04:04:37;;;;;;;17.00;12.85;;;;;;;15.16;29.15;94237.44;5116222;28;20066;-59
2020/12/04 04:07:04;;;;;;;16.45;11.98;;;;;;;15.34;29.43;94201.25;5117589;28;20047;-60
2020/12/04 04:09:31;;;;;;;16.60;12.55;;;;;;;15.38;28.96;94233.78;5117526;28;20059;-57
2020/12/04 04:11:58;;;;;;;16.17;11.95;;;;;;;14.73;29.77;94216.56;5117233;28;20055;-57
2020/12/04 04:14:25;;;;;;;14.73;10.93;;;;;;;16.06;28.27;94213.31;5116940;28;20055;-58
2020/12/04 04:16:52;;;;;;;14.73;11.02;;;;;;;15.53;28.36;94206.09;5117293;28;20050;-59
2020/12/04 04:19:19;;;;;;;14.27;10.85;;;;;;;15.63;28.59;94227.59;5117048;28;20353;-59
2020/12/04 04:21:46;;;;;;;12.18;9.43;;;;;;;15.47;28.84;94218.69;5117392;28;20377;-56
2020/12/04 04:24:13;;;;;;;11.60;9.27;;;;;;;15.89;28.34;94219.50;5106121;28;20362;-56
2020/12/04 04:26:41;;;;;;;12.25;9.35;;;;;;;15.95;28.00;94207.66;5096412;28;20086;-58
2020/12/04 04:29:08;;;;;;;11.63;9.20;;;;;;;15.74;28.21;94212.19;5096743;28;20055;-57
2020/12/04 04:31:35;;;;;;;13.50;9.27;;;;;;;15.47;28.56;94212.66;5096101;28;20063;-56
2020/12/04 04:34:02;;;;;;;12.07;9.30;;;;;;;15.52;28.40;94202.69;5109371;28;20059;-58
2020/12/04 04:36:29;;;;;;;10.82;8.43;;;;;;;16.21;27.36;94219.84;5116176;28;20055;-56
2020/12/04 04:38:56;;;;;;;10.73;7.97;;;;;;;16.07;27.85;94212.22;5115896;28;20050;-58
2020/12/04 04:41:23;;;;;;;11.93;7.85;;;;;;;16.69;26.90;94200.78;5115951;28;20059;-58
2020/12/04 04:43:50;;;;;;;11.25;8.18;;;;;;;16.21;27.68;94198.75;5116257;28;20046;-58
2020/12/04 04:46:25;;;;;;;10.93;8.43;;;;;;;15.99;27.66;94203.28;5101504;28;20051;-58
2020/12/04 04:48:58;;;;;;;11.35;8.57;;;;;;;16.14;27.41;94194.03;5112095;28;20047;-57
2020/12/04 04:51:25;;;;;;;12.90;10.52;;;;;;;16.12;27.49;94195.41;5096342;28;20047;-56
2020/12/04 04:53:57;;;;;;;15.25;10.93;;;;;;;17.06;26.35;94195.50;5107460;28;20070;-60
2020/12/04 04:56:25;;;;;;;18.08;11.27;;;;;;;16.48;27.07;94203.44;5116424;28;20082;-56
2020/12/04 04:58:52;;;;;;;16.73;11.35;;;;;;;15.98;27.79;94191.19;5116349;28;20383;-60
2020/12/04 05:01:19;;;;;;;14.48;10.00;;;;;;;16.63;27.09;94181.69;5116364;28;20043;-58
2020/12/04 05:03:57;;;;;;;12.77;9.38;;;;;;;16.96;26.77;94202.00;5116051;28;20047;-59
2020/12/04 05:06:42;;;;;;;12.68;9.27;;;;;;;17.33;26.21;94209.91;5116345;28;20358;-53
2020/12/04 05:09:16;;;;;;;10.82;7.80;;;;;;;16.51;27.49;94208.06;5115413;28;20462;-55
2020/12/04 05:11:57;;;;;;;8.70;6.93;;;;;;;16.47;27.45;94206.41;5114791;28;20051;-54
2020/12/04 05:14:25;;;;;;;7.75;6.57;;;;;;;16.36;27.98;94206.03;5115800;28;20043;-62
2020/12/04 05:16:54;;;;;;;8.80;6.72;;;;;;;16.56;27.24;94215.78;5106343;28;20048;-64
2020/12/04 05:19:37;;;;;;;8.32;6.05;;;;;;;16.61;27.92;94220.84;5095715;28;20351;-55
2020/12/04 05:22:17;;;;;;;8.88;6.15;;;;;;;13.53;32.98;94208.50;5112171;28;20438;-50
2020/12/04 05:24:45;;;;;;;8.27;6.18;;;;;;;13.44;33.66;94199.06;5111055;28;20048;-59
2020/12/04 05:27:22;;;;;;;7.93;5.72;;;;;;;15.22;30.76;94196.69;5095776;28;20443;-70
2020/12/04 05:29:51;;;;;;;8.52;6.20;;;;;;;15.46;30.14;94205.84;5095611;28;20055;-64
2020/12/04 05:32:20;;;;;;;7.97;6.30;;;;;;;16.30;28.74;94199.44;5102863;28;20048;-50
2020/12/04 05:34:47;;;;;;;8.43;6.60;;;;;;;16.19;28.95;94193.03;5103571;28;20619;-50
2020/12/04 05:37:18;;;;;;;8.13;6.32;;;;;;;16.47;28.60;94201.91;5095629;28;20052;-54
2020/12/04 05:39:48;;;;;;;8.65;6.68;;;;;;;17.01;27.76;94193.88;5095686;28;20055;-62
2020/12/04 05:42:40;;;;;;;8.88;7.07;;;;;;;16.87;27.99;94191.53;5109742;28;20070;-69
2020/12/04 05:45:07;;;;;;;9.90;7.15;;;;;;;16.64;28.40;94191.16;5115582;28;20492;-55
2020/12/04 05:47:40;;;;;;;9.63;7.03;;;;;;;16.92;27.94;94201.91;5115906;28;20063;-55
2020/12/04 05:50:10;;;;;;;10.05;7.65;;;;;;;16.62;28.41;94195.22;5115606;28;20450;-49
2020/12/04 05:52:38;;;;;;;10.63;8.00;;;;;;;16.73;28.45;94198.25;5115752;28;20059;-55
2020/12/04 05:55:07;;;;;;;9.60;7.55;;;;;;;16.76;28.31;94201.00;5115261;28;20047;-55
2020/12/04 05:57:43;;;;;;;8.65;7.05;;;;;;;16.45;28.79;94188.28;5115542;28;20059;-56
2020/12/04 06:00:12;;;;;;;9.63;7.63;;;;;;;16.58;28.92;94192.47;5115740;28;20043;-52
2020/12/04 06:02:40;;;;;;;9.55;7.20;;;;;;;16.02;29.71;94197.38;5115532;28;20054;-59
2020/12/04 06:05:11;;;;;;;10.25;7.90;;;;;;;16.38;29.39;94198.56;5114963;28;20044;-55
2020/12/04 06:07:39;;;;;;;9.38;7.57;;;;;;;16.84;28.38;94209.91;5114656;28;20051;-56
2020/12/04 06:10:07;;;;;;;8.60;7.07;;;;;;;17.09;28.08;94227.31;5115620;28;20051;-56
2020/12/04 06:12:35;;;;;;;10.88;8.45;;;;;;;17.19;28.13;94224.25;5115213;28;20039;-58
2020/12/04 06:15:28;;;;;;;11.55;8.63;;;;;;;16.97;28.41;94214.13;5115061;28;20374;-58
2020/12/04 06:18:02;;;;;;;;;;;;;;;17.13;28.33;94217.63;5115949;28;20056;-56
2020/12/04 06:20:39;;;;;;;10.50;8.10;;;;;;;17.17;28.05;94210.56;5115506;28;19916;-60
2020/12/04 06:23:10;;;;;;;11.95;8.25;;;;;;;17.35;27.86;94213.75;5115254;28;20043;-58
2020/12/04 06:25:53;;;;;;;12.07;9.07;;;;;;;17.24;28.31;94223.25;5115316;28;20040;-59
2020/12/04 06:28:25;;;;;;;12.60;9.48;;;;;;;17.18;28.09;94224.59;5115556;28;20051;-56
2020/12/04 06:31:08;;;;;;;12.80;9.80;;;;;;;17.06;28.52;94232.47;5115461;28;20047;-55
2020/12/04 06:33:42;;;;;;;13.05;10.13;;;;;;;16.77;28.91;94228.94;5115017;28;20358;-58
2020/12/04 06:36:30;;;;;;;14.10;10.32;;;;;;;17.03;28.56;94223.34;5115305;28;20043;-54
2020/12/04 06:38:58;;;;;;;14.68;10.30;;;;;;;16.88;28.82;94227.41;5115284;28;20039;-55
2020/12/04 06:41:28;;;;;;;14.43;10.40;;;;;;;16.85;29.03;94227.28;5114969;28;20051;-59
2020/12/04 06:43:59;;;;;;;13.13;9.88;;;;;;;16.54;29.55;94243.59;5115011;28;20449;-57
2020/12/04 06:46:35;;;;;;;13.88;10.43;;;;;;;16.75;29.05;94243.56;5115051;28;20085;-61
2020/12/04 06:49:09;;;;;;;17.90;13.10;;;;;;;16.75;28.96;94243.56;5115262;28;20066;-56
2020/12/04 06:51:40;;;;;;;18.52;14.15;;;;;;;16.68;29.05;94248.63;5115133;28;20051;-56
2020/12/04 06:54:08;;;;;;;18.45;13.93;;;;;;;16.48;29.08;94248.31;5114775;28;20051;-58
2020/12/04 06:56:35;;;;;;;15.80;12.27;;;;;;;16.55;29.18;94251.19;5115077;28;20055;-57
2020/12/04 06:59:02;;;;;;;16.05;11.68;;;;;;;16.58;29.20;94255.81;5115226;28;20382;-55
2020/12/04 07:01:30;;;;;;;15.20;12.23;;;;;;;16.54;29.06;94254.91;5115130;28;20055;-57
2020/12/04 07:03:57;;;;;;;17.13;12.80;;;;;;;16.47;29.21;94252.03;5114885;28;20039;-54
2020/12/04 07:06:24;;;;;;;16.52;11.80;;;;;;;16.55;28.87;94248.53;5115019;28;20051;-55
2020/12/04 07:09:04;;;;;;;15.80;12.27;;;;;;;16.83;28.70;94255.88;5114958;28;20055;-56
2020/12/04 07:11:31;;;;;;;14.80;11.68;;;;;;;16.93;28.60;94264.19;5117817;28;20051;-55
2020/12/04 07:13:59;;;;;;;18.70;12.77;;;;;;;16.84;28.54;94257.44;5118461;28;20414;-59
2020/12/04 07:16:27;;;;;;;18.15;13.77;;;;;;;16.65;28.89;94253.41;5118385;28;20055;-55
2020/12/04 07:18:55;;;;;;;16.65;13.10;;;;;;;16.76;28.61;94255.66;5100844;28;20048;-57
2020/12/04 07:21:22;;;;;;;17.65;14.00;;;;;;;17.09;28.29;94258.22;5097155;28;20063;-57
2020/12/04 07:23:51;;;;;;;19.40;14.50;;;;;;;16.90;28.77;94271.97;5096770;28;20047;-55
2020/12/04 07:26:21;;;;;;;20.27;14.93;;;;;;;17.42;27.81;94252.84;5097931;28;20052;-55
2020/12/04 07:28:49;;;;;;;19.45;15.05;;;;;;;16.97;28.59;94245.81;5097983;28;20454;-56
2020/12/04 07:31:20;;;;;;;20.05;15.32;;;;;;;17.07;28.42;94245.34;5097954;28;20070;-59
2020/12/04 07:34:05;;;;;;;19.90;14.85;;;;;;;16.75;29.16;94240.91;5097509;28;20063;-58
2020/12/04 07:36:33;;;;;;;13.48;11.23;;;;;;;18.22;26.67;94247.66;5097387;28;20425;-55
2020/12/04 07:39:01;;;;;;;15.93;12.50;;;;;;;17.27;28.42;94239.22;5097819;28;20363;-56
2020/12/04 07:41:41;;;;;;;16.75;13.02;;;;;;;16.98;28.71;94234.13;5097466;28;20055;-56
2020/12/04 07:44:10;;;;;;;16.52;12.50;;;;;;;17.14;28.31;94235.00;5097252;28;20044;-55
2020/12/04 07:46:38;;;;;;;16.88;13.15;;;;;;;17.00;28.82;94231.94;5097175;28;20078;-58
2020/12/04 07:49:09;;;;;;;17.60;12.73;;;;;;;17.31;28.18;94241.97;5097985;28;20442;-56
2020/12/04 07:51:39;;;;;;;17.38;14.23;;;;;;;17.32;28.39;94229.50;5097571;28;20043;-58
2020/12/04 07:54:24;;;;;;;17.50;14.13;;;;;;;17.30;28.23;94237.00;5097107;28;20331;-56
2020/12/04 07:56:55;;;;;;;15.57;13.20;;;;;;;17.55;27.96;94243.81;5079513;28;20056;-57
2020/12/04 07:59:31;;;;;;;15.82;12.27;;;;;;;17.87;27.55;94248.19;5077264;28;20060;-56
2020/12/04 08:02:02;;;;;;;16.50;12.15;;;;;;;17.26;28.62;94258.81;5076090;28;20380;-57
2020/12/04 08:04:31;;;;;;;14.60;11.35;;;;;;;17.51;28.63;94254.28;5087209;28;20423;-56
2020/12/04 08:07:06;;;;;;;16.20;12.30;;;;;;;17.25;28.84;94256.50;5097244;28;20048;-58
2020/12/04 08:09:38;;;;;;;15.85;12.10;;;;;;;17.27;29.13;94252.41;5097254;28;20044;-60
2020/12/04 08:12:13;;;;;;;15.82;11.40;;;;;;;17.44;28.61;94269.16;5096889;28;20055;-56
2020/12/04 08:14:52;;;;;;;15.77;11.95;;;;;;;17.61;28.54;94263.63;5095433;28;20044;-58
2020/12/04 08:17:21;;;;;;;15.10;11.70;;;;;;;17.45;28.40;94258.25;5097004;28;20375;-58
2020/12/04 08:19:49;;;;;;;17.10;12.82;;;;;;;17.19;29.15;94248.03;5096733;28;20370;-59
2020/12/04 08:22:24;;;;;;;16.13;12.80;;;;;;;17.33;28.99;94257.47;5097122;28;20055;-57
2020/12/04 08:25:07;;;;;;;15.70;12.52;;;;;;;17.68;28.63;94248.00;5096354;28;20036;-56
2020/12/04 08:27:45;;;;;;;21.08;13.27;;;;;;;17.49;28.76;94239.88;5096836;28;20059;-57
2020/12/04 08:30:18;;;;;;;18.27;13.40;;;;;;;17.43;28.99;94241.16;5096783;28;20046;-56
2020/12/04 08:32:54;;;;;;;20.15;14.27;;;;;;;17.46;28.89;94249.22;5096637;28;20056;-57
2020/12/04 08:35:23;;;;;;;19.45;14.13;;;;;;;17.62;28.66;94238.72;5096257;28;20047;-59
2020/12/04 08:37:52;;;;;;;19.38;15.15;;;;;;;17.30;29.29;94239.66;5096669;28;20060;-56
2020/12/04 08:40:30;;;;;;;19.55;14.90;;;;;;;17.25;29.07;94236.13;5096727;28;20059;-58
2020/12/04 08:43:12;;;;;;;19.23;14.52;;;;;;;17.50;28.90;94236.13;5084441;28;20059;-59
2020/12/04 08:45:41;;;;;;;20.67;15.30;;;;;;;17.53;28.79;94223.00;5096032;28;20047;-58
2020/12/04 08:48:11;;;;;;;19.50;15.27;;;;;;;17.66;28.96;94233.53;5096424;28;20063;-57
2020/12/04 08:50:50;;;;;;;21.90;15.00;;;;;;;17.48;29.14;94227.75;5095330;28;20052;-57
2020/12/04 08:53:19;;;;;;;19.48;14.27;;;;;;;17.21;29.66;94229.19;5096302;28;20328;-56
2020/12/04 08:55:57;;;;;;;20.77;15.90;;;;;;;17.26;29.65;94231.63;5095859;28;20374;-59
2020/12/04 08:58:25;;;;;;;20.10;14.70;;;;;;;17.38;29.13;94230.81;5096246;28;20056;-57
2020/12/04 09:00:53;;;;;;;18.08;14.00;;;;;;;18.62;27.16;94236.22;5096180;28;20052;-58
2020/12/04 09:03:22;;;;;;;19.73;15.07;;;;;;;17.73;28.65;94234.56;5096110;28;20058;-58
2020/12/04 09:05:50;;;;;;;21.45;16.08;;;;;;;17.32;29.58;94226.88;5095719;28;20486;-56
2020/12/04 09:08:17;;;;;;;23.13;16.73;;;;;;;17.39;29.35;94222.56;5096100;28;20048;-58
2020/12/04 09:10:45;;;;;;;16.90;13.93;;;;;;;17.54;28.89;94226.41;5095685;28;20055;-58
2020/12/04 09:13:12;;;;;;;18.70;14.52;;;;;;;17.39;29.38;94216.50;5096135;28;20052;-60
2020/12/04 09:15:39;;;;;;;19.52;14.88;;;;;;;17.48;29.19;94211.91;5095368;28;20048;-57
2020/12/04 09:18:06;;;;;;;21.73;16.35;;;;;;;17.58;28.94;94200.84;5095948;28;20070;-59
2020/12/04 09:20:34;;;;;;;17.10;13.50;;;;;;;18.51;27.30;94198.13;5094951;28;20063;-56
2020/12/04 09:23:02;;;;;;;18.20;14.38;;;;;;;18.04;28.34;94201.44;5095932;28;20047;-57
2020/12/04 09:25:31;;;;;;;16.83;13.43;;;;;;;17.97;28.42;94195.94;5095419;28;20445;-56
2020/12/04 09:27:59;;;;;;;18.77;14.32;;;;;;;18.25;27.87;94196.72;5070653;28;20057;-57
2020/12/04 09:30:26;;;;;;;19.80;14.52;;;;;;;18.00;28.39;94205.84;5055412;28;20371;-56
2020/12/04 09:32:53;;;;;;;19.27;14.27;;;;;;;18.05;28.42;94208.25;5054922;28;20053;-58
2020/12/04 09:35:20;;;;;;;17.63;14.10;;;;;;;18.01;28.56;94196.81;5070023;28;20052;-56
2020/12/04 09:37:48;;;;;;;16.38;12.75;;;;;;;18.07;28.34;94206.81;5075625;28;20060;-56
2020/12/04 09:40:18;;;;;;;17.38;12.82;;;;;;;18.22;28.28;94196.63;5075386;28;20051;-57
2020/12/04 09:42:46;;;;;;;19.20;13.40;;;;;;;18.11;28.32;94198.97;5073918;28;20063;-57
2020/12/04 09:45:13;;;;;;;18.27;14.43;;;;;;;18.08;28.37;94191.72;5075098;28;20363;-55
2020/12/04 09:47:40;;;;;;;20.92;15.27;;;;;;;17.76;28.87;94181.03;5075315;28;20056;-56
2020/12/04 09:50:10;;;;;;;20.45;15.68;;;;;;;17.79;28.92;94177.72;5074777;28;20055;-57
2020/12/04 09:52:38;;;;;;;18.17;14.32;;;;;;;17.85;28.80;94184.28;5074944;28;20119;-59
2020/12/04 09:55:06;;;;;;;19.80;15.43;;;;;;;17.99;28.64;94193.72;5074992;28;20055;-57
2020/12/04 09:57:34;;;;;;;19.60;15.27;;;;;;;18.05;28.64;94195.03;5075200;28;20059;-57
2020/12/04 10:00:05;;;;;;;19.45;15.10;;;;;;;18.60;27.74;94201.38;5075149;28;20460;-57
2020/12/04 10:02:33;;;;;;;20.13;15.70;;;;;;;18.72;27.39;94198.66;5074795;28;20056;-56
2020/12/04 10:05:00;;;;;;;20.33;15.45;;;;;;;18.10;28.50;94208.78;5074889;28;20044;-60
2020/12/04 10:07:27;;;;;;;21.80;15.88;;;;;;;17.98;28.67;94205.41;5075063;28;20049;-60
2020/12/04 10:09:54;;;;;;;19.17;14.82;;;;;;;18.12;28.52;94197.84;5075065;28;20391;-58
2020/12/04 10:12:22;;;;;;;20.52;15.25;;;;;;;17.86;29.01;94206.97;5074363;28;20398;-57
2020/12/04 10:14:49;;;;;;;20.65;15.82;;;;;;;17.91;28.97;94197.28;5074616;28;20049;-59
2020/12/04 10:17:16;;;;;;;20.35;15.63;;;;;;;17.99;28.87;94199.03;5074162;28;20056;-55
2020/12/04 10:19:43;;;;;;;19.83;15.55;;;;;;;18.06;28.56;94194.69;5088128;28;20482;-57
2020/12/04 10:22:11;;;;;;;22.27;16.70;;;;;;;18.12;28.82;94195.22;5115531;28;20047;-61
2020/12/04 10:24:38;;;;;;;21.83;17.27;;;;;;;18.07;28.73;94201.50;5114179;28;20050;-58
2020/12/04 10:27:05;;;;;;;22.15;16.95;;;;;;;18.18;28.58;94196.50;5115477;28;20054;-55
2020/12/04 10:29:32;;;;;;;21.40;16.48;;;;;;;18.16;28.74;94183.63;5115429;28;20059;-54
2020/12/04 10:32:00;;;;;;;22.27;16.08;;;;;;;18.14;28.71;94179.78;5097418;28;20078;-55
2020/12/04 10:34:27;;;;;;;24.05;18.55;;;;;;;18.46;28.45;94170.78;5114851;28;20051;-55
2020/12/04 10:36:54;;;;;;;22.40;17.15;;;;;;;18.33;28.39;94177.25;5115384;28;20048;-57
2020/12/04 10:39:21;;;;;;;19.63;15.10;;;;;;;18.30;28.42;94167.34;5115373;28;20051;-55
2020/12/04 10:41:48;;;;;;;20.77;15.10;;;;;;;19.09;27.35;94170.06;5112778;28;20047;-58
2020/12/04 10:44:15;;;;;;;17.70;14.13;;;;;;;18.36;28.35;94170.50;5096739;28;20052;-60
2020/12/04 10:46:42;;;;;;;17.45;14.10;;;;;;;19.14;27.33;94161.06;5115004;28;20075;-58
2020/12/04 10:49:09;;;;;;;20.48;14.77;;;;;;;18.79;27.77;94161.78;5118318;28;20059;-57
2020/12/04 10:51:37;;;;;;;18.40;14.63;;;;;;;18.48;28.43;94147.41;5119146;28;20056;-56
2020/12/04 10:54:05;;;;;;;22.60;16.48;;;;;;;18.67;28.03;94143.31;5118602;28;20058;-55
2020/12/04 10:56:32;;;;;;;24.02;16.45;;;;;;;18.60;28.29;94137.84;5118950;28;20050;-62
2020/12/04 10:59:00;;;;;;;22.92;17.30;;;;;;;18.43;28.45;94133.63;5118984;28;20055;-56
2020/12/04 11:01:32;;;;;;;20.92;15.82;;;;;;;19.00;27.45;94119.91;5118940;28;20051;-58
2020/12/04 11:06:45;;;;;;;19.05;12.93;;;;;;;18.74;27.85;94143.53;5118751;28;20047;-58
2020/12/04 11:09:12;;;;;;;18.17;14.05;;;;;;;18.82;27.85;94150.50;5118782;28;20065;-61
2020/12/04 11:11:39;;;;;;;18.70;14.48;;;;;;;18.51;28.15;94138.00;5118418;28;20055;-57
2020/12/04 11:14:06;;;;;;;19.70;14.65;;;;;;;18.68;27.96;94137.69;5118581;28;20052;-58
2020/12/04 11:16:33;;;;;;;16.88;13.30;;;;;;;18.88;27.68;94133.25;5118537;28;20058;-55
2020/12/04 11:19:00;;;;;;;19.92;14.75;;;;;;;18.72;28.16;94141.19;5118524;28;20081;-58
2020/12/04 11:21:29;;;;;;;18.65;14.40;;;;;;;19.19;27.24;94126.34;5118584;28;20054;-60
2020/12/04 11:23:56;;;;;;;18.50;14.65;;;;;;;18.93;27.81;94125.03;5118375;28;20055;-59
2020/12/04 11:26:23;;;;;;;116.72;69.15;;;;;;;18.72;28.06;94120.00;5118201;28;20043;-58
2020/12/04 11:28:50;;;;;;;17.80;14.65;;;;;;;18.93;27.76;94114.44;5118291;28;20050;-56
2020/12/04 11:31:18;;;;;;;20.88;14.85;;;;;;;18.92;27.61;94118.19;5118297;28;20055;-58
2020/12/04 11:33:45;;;;;;;23.13;15.55;;;;;;;18.66;28.13;94125.91;5118096;28;20047;-56